createdAt,value
2019-04-10T00:01:29.956Z,74.53
2019-04-10T00:03:59.563Z,86.13
2019-04-10T00:06:29.890Z,83.23
2019-04-10T00:08:59.406Z,76.47
2019-04-10T00:11:29.066Z,85.03
2019-04-10T00:14:18.578Z,82.63
2019-04-10T00:16:48.845Z,88.17
2019-04-10T00:19:18.407Z,77.37
2019-04-10T00:21:48.084Z,76.13
2019-04-10T00:24:17.782Z,80.30
2019-04-10T00:26:48.026Z,80.67
2019-04-10T00:29:18.244Z,78.87
2019-04-10T00:31:48.729Z,82.67
2019-04-10T00:34:37.936Z,87.90
2019-04-10T00:37:19.049Z,85.97
2019-04-10T00:39:38.973Z,86.80
2019-04-10T00:42:08.654Z,86.33
2019-04-10T00:44:38.152Z,82.13
2019-04-10T00:47:07.654Z,81.83
2019-04-10T00:49:37.772Z,83.43
2019-04-10T00:52:08.007Z,82.27
2019-04-10T00:54:37.538Z,81.97
2019-04-10T00:57:07.391Z,82.83
2019-04-10T00:59:36.885Z,84.10
2019-04-10T01:02:06.345Z,86.50
2019-04-10T01:04:36.153Z,86.47
2019-04-10T01:07:05.708Z,85.53
2019-04-10T01:09:35.194Z,86.43
2019-04-10T01:12:06.209Z,81.67
2019-04-10T01:14:35.918Z,86.23
2019-04-10T01:17:06.283Z,84.97
2019-04-10T01:19:36.359Z,86.87
2019-04-10T01:22:06.547Z,83.17
2019-04-10T01:24:36.182Z,86.70
2019-04-10T01:27:07.688Z,83.67
2019-04-10T01:29:37.737Z,80.70
2019-04-10T01:32:07.765Z,80.87
2019-04-10T01:34:37.951Z,85.17
2019-04-10T01:37:26.986Z,82.10
2019-04-10T01:39:56.958Z,82.80
2019-04-10T01:42:26.568Z,82.90
2019-04-10T01:44:56.058Z,79.70
2019-04-10T01:47:26.846Z,81.23
2019-04-10T01:49:56.451Z,82.07
2019-04-10T01:52:25.962Z,82.13
2019-04-10T01:54:57.608Z,83.73
2019-04-10T01:57:28.427Z,80.13
2019-04-10T01:59:58.333Z,80.33
2019-04-10T02:02:29.964Z,87.27
2019-04-10T02:05:00.595Z,81.63
2019-04-10T02:07:30.187Z,83.33
2019-04-10T02:09:59.715Z,78.70
2019-04-10T02:12:29.176Z,81.10
2019-04-10T02:14:58.678Z,82.93
2019-04-10T02:17:28.588Z,85.70
2019-04-10T02:19:58.694Z,86.97
2019-04-10T02:22:28.704Z,77.10
2019-04-10T02:24:58.301Z,83.33
2019-04-10T02:27:27.769Z,79.23
2019-04-10T02:29:57.888Z,82.17
2019-04-10T02:32:28.357Z,79.80
2019-04-10T02:35:19.808Z,85.17
2019-04-10T02:37:52.517Z,78.87
2019-04-10T02:40:21.281Z,76.23
2019-04-10T02:42:51.373Z,77.27
2019-04-10T02:45:21.961Z,76.43
2019-04-10T02:47:52.886Z,84.57
2019-04-10T02:50:22.665Z,78.13
2019-04-10T02:52:52.446Z,81.17
2019-04-10T02:55:22.943Z,78.83
2019-04-10T02:57:54.256Z,80.80
2019-04-10T03:00:24.456Z,81.47
2019-04-10T03:02:57.000Z,75.73
2019-04-10T03:05:27.367Z,75.87
2019-04-10T03:07:58.261Z,76.67
2019-04-10T03:10:38.339Z,74.57
2019-04-10T03:13:00.649Z,76.67
2019-04-10T03:15:31.510Z,79.20
2019-04-10T03:18:02.893Z,82.93
2019-04-10T03:20:32.393Z,86.93
2019-04-10T03:23:02.042Z,78.93
2019-04-10T03:25:50.987Z,77.23
2019-04-10T03:28:20.569Z,75.90
2019-04-10T03:30:50.042Z,80.53
2019-04-10T03:33:24.560Z,78.73
2019-04-10T03:35:54.852Z,73.53
2019-04-10T03:38:55.351Z,80.70
2019-04-10T03:41:15.721Z,71.57
2019-04-10T03:43:45.816Z,80.33
2019-04-10T03:46:15.425Z,77.90
2019-04-10T03:48:45.229Z,78.20
2019-04-10T03:51:14.827Z,76.83
2019-04-10T03:53:44.533Z,73.07
2019-04-10T03:56:14.211Z,78.70
2019-04-10T03:58:44.979Z,75.90
2019-04-10T04:01:14.547Z,82.93
2019-04-10T04:03:44.701Z,75.63
2019-04-10T04:06:15.434Z,76.43
2019-04-10T04:08:46.022Z,77.83
2019-04-10T04:11:15.740Z,77.17
2019-04-10T04:13:45.881Z,81.63
2019-04-10T04:16:15.561Z,80.33
2019-04-10T04:18:45.652Z,78.17
2019-04-10T04:21:15.304Z,79.27
2019-04-10T04:23:44.858Z,79.63
2019-04-10T04:26:14.836Z,73.40
2019-04-10T04:29:03.702Z,77.27
2019-04-10T04:31:33.315Z,73.20
2019-04-10T04:34:02.769Z,76.43
2019-04-10T04:36:33.033Z,74.27
2019-04-10T04:39:13.548Z,76.17
2019-04-10T04:41:33.918Z,74.50
2019-04-10T04:44:22.734Z,76.60
2019-04-10T04:46:52.693Z,74.87
2019-04-10T04:49:22.279Z,75.47
2019-04-10T04:51:52.651Z,74.90
2019-04-10T04:54:23.102Z,71.47
2019-04-10T04:56:52.919Z,72.73
2019-04-10T04:59:22.394Z,72.23
2019-04-10T05:01:52.867Z,70.77
2019-04-10T05:04:22.947Z,70.20
2019-04-10T05:06:52.535Z,74.27
2019-04-10T05:09:31.066Z,69.33
2019-04-10T05:11:53.233Z,71.57
2019-04-10T05:14:23.755Z,75.90
2019-04-10T05:16:53.415Z,74.30
2019-04-10T05:19:22.912Z,70.70
2019-04-10T05:21:52.410Z,71.97
2019-04-10T05:24:22.064Z,69.77
2019-04-10T05:26:51.631Z,67.27
2019-04-10T05:29:21.656Z,68.93
2019-04-10T05:31:51.279Z,70.30
2019-04-10T05:34:21.903Z,71.03
2019-04-10T05:36:52.101Z,68.77
2019-04-10T05:39:22.484Z,71.60
2019-04-10T05:41:52.035Z,67.23
2019-04-10T05:44:21.528Z,63.93
2019-04-10T05:46:50.996Z,64.83
2019-04-10T05:49:20.751Z,67.00
2019-04-10T05:51:51.088Z,65.33
2019-04-10T05:54:20.603Z,65.73
2019-04-10T05:56:50.432Z,64.27
2019-04-10T05:59:20.214Z,68.03
2019-04-10T06:01:50.569Z,68.87
2019-04-10T06:04:21.038Z,72.80
2019-04-10T06:06:50.732Z,66.50
2019-04-10T06:09:20.575Z,67.97
2019-04-10T06:11:50.141Z,68.97
2019-04-10T06:14:19.937Z,69.77
2019-04-10T06:16:49.657Z,68.03
2019-04-10T06:19:19.975Z,62.80
2019-04-10T06:21:50.802Z,65.30
2019-04-10T06:24:20.456Z,67.47
2019-04-10T06:26:50.194Z,65.83
2019-04-10T06:29:19.796Z,67.07
2019-04-10T06:31:49.451Z,67.00
2019-04-10T06:34:20.571Z,61.67
2019-04-10T06:36:51.485Z,61.27
2019-04-10T06:39:21.190Z,63.00
2019-04-10T06:41:50.840Z,64.23
2019-04-10T06:44:21.681Z,63.20
2019-04-10T06:46:51.282Z,59.80
2019-04-10T06:49:20.765Z,56.50
2019-04-10T06:51:51.418Z,60.00
2019-04-10T06:54:21.066Z,61.60
2019-04-10T06:56:50.521Z,58.17
2019-04-10T06:59:21.154Z,54.40
2019-04-10T07:01:56.410Z,51.57
2019-04-10T07:04:26.286Z,48.60
2019-04-10T07:07:04.656Z,48.70
2019-04-10T07:09:27.310Z,51.07
2019-04-10T07:12:00.982Z,45.20
2019-04-10T07:14:50.474Z,39.70
2019-04-10T07:17:19.914Z,44.70
2019-04-10T07:19:49.520Z,43.67
2019-04-10T07:22:20.655Z,43.03
2019-04-10T07:24:52.247Z,47.63
2019-04-10T07:27:21.880Z,45.33
2019-04-10T07:29:57.291Z,42.23
2019-04-10T07:32:24.264Z,42.30
2019-04-10T07:34:59.206Z,42.00
2019-04-10T07:37:25.888Z,43.23
2019-04-10T07:40:16.367Z,39.23
2019-04-10T07:42:46.306Z,39.03
2019-04-10T07:45:17.606Z,42.10
2019-04-10T07:47:48.222Z,39.93
2019-04-10T07:50:18.411Z,39.43
2019-04-10T07:52:49.971Z,41.70
2019-04-10T07:55:33.041Z,37.00
2019-04-10T07:58:02.821Z,38.80
2019-04-10T08:00:32.599Z,37.97
2019-04-10T08:03:02.375Z,40.60
2019-04-10T08:05:31.863Z,36.83
2019-04-10T08:08:01.425Z,42.03
2019-04-10T08:10:31.017Z,38.00
2019-04-10T08:13:00.542Z,37.37
2019-04-10T08:15:50.083Z,34.43
2019-04-10T08:18:19.614Z,37.03
2019-04-10T08:20:49.119Z,37.37
2019-04-10T08:23:19.649Z,37.53
2019-04-10T08:25:51.633Z,35.93
2019-04-10T08:28:22.025Z,36.57
2019-04-10T08:30:52.494Z,36.07
2019-04-10T08:33:22.257Z,37.20
2019-04-10T08:35:51.781Z,35.40
2019-04-10T08:38:21.856Z,35.57
2019-04-10T08:40:52.365Z,34.13
2019-04-10T08:43:22.409Z,36.23
2019-04-10T08:45:53.660Z,34.27
2019-04-10T08:48:24.090Z,31.97
2019-04-10T08:50:54.708Z,36.23
2019-04-10T08:53:44.537Z,36.70
2019-04-10T08:56:14.137Z,34.73
2019-04-10T08:58:43.611Z,33.30
2019-04-10T09:01:13.346Z,33.03
2019-04-10T09:03:43.385Z,31.40
2019-04-10T09:06:13.373Z,32.07
2019-04-10T09:08:43.580Z,30.27
2019-04-10T09:11:14.613Z,33.77
2019-04-10T09:13:44.643Z,31.67
2019-04-10T09:16:14.152Z,31.67
2019-04-10T09:18:43.623Z,30.87
2019-04-10T09:21:13.339Z,33.07
2019-04-10T09:23:50.462Z,29.80
2019-04-10T09:26:14.135Z,31.70
2019-04-10T09:28:43.643Z,31.00
2019-04-10T09:31:13.600Z,33.07
2019-04-10T09:33:43.307Z,32.83
2019-04-10T09:36:13.244Z,33.43
2019-04-10T09:38:43.962Z,29.50
2019-04-10T09:41:14.359Z,31.67
2019-04-10T09:43:43.884Z,30.83
2019-04-10T09:46:13.389Z,31.87
2019-04-10T09:48:42.854Z,33.97
2019-04-10T09:51:15.309Z,30.27
2019-04-10T09:53:43.933Z,29.27
2019-04-10T09:56:13.694Z,29.93
2019-04-10T09:58:43.338Z,30.63
2019-04-10T10:01:16.328Z,29.97
2019-04-10T10:03:45.974Z,27.73
2019-04-10T10:06:25.174Z,29.23
2019-04-10T10:08:47.980Z,27.77
2019-04-10T10:11:18.119Z,28.33
2019-04-10T10:13:48.227Z,29.53
2019-04-10T10:16:18.833Z,27.53
2019-04-10T10:18:48.487Z,27.33
2019-04-10T10:21:18.683Z,30.80
2019-04-10T10:23:48.300Z,29.17
2019-04-10T10:26:17.829Z,28.03
2019-04-10T10:28:47.337Z,27.27
2019-04-10T10:31:16.934Z,28.00
2019-04-10T10:33:46.474Z,31.60
2019-04-10T10:36:16.569Z,28.27
2019-04-10T10:38:46.090Z,26.27
2019-04-10T10:41:15.570Z,26.63
2019-04-10T10:43:45.055Z,27.47
2019-04-10T10:46:15.921Z,26.60
2019-04-10T10:48:46.139Z,28.27
2019-04-10T10:51:15.678Z,25.60
2019-04-10T10:53:46.156Z,26.67
2019-04-10T10:56:34.850Z,27.03
2019-04-10T10:59:05.026Z,28.20
2019-04-10T11:01:35.820Z,26.80
2019-04-10T11:04:06.714Z,27.90
2019-04-10T11:06:50.608Z,27.07
2019-04-10T11:09:12.679Z,28.90
2019-04-10T11:11:42.269Z,28.07
2019-04-10T11:14:13.198Z,27.53
2019-04-10T11:16:42.979Z,25.50
2019-04-10T11:19:13.063Z,27.23
2019-04-10T11:21:42.951Z,25.03
2019-04-10T11:24:13.642Z,24.93
2019-04-10T11:26:43.998Z,29.27
2019-04-10T11:29:14.703Z,29.13
2019-04-10T11:31:45.758Z,24.37
2019-04-10T11:34:16.547Z,23.20
2019-04-10T11:36:46.495Z,24.37
2019-04-10T11:41:49.984Z,24.63
2019-04-10T11:44:21.278Z,26.83
2019-04-10T11:46:51.877Z,21.62
2019-04-10T11:49:22.920Z,22.95
2019-04-10T11:51:55.759Z,21.73
2019-04-10T11:54:26.949Z,23.70
2019-04-10T11:57:16.652Z,21.97
2019-04-10T11:59:48.909Z,21.20
2019-04-10T12:04:55.864Z,22.90
2019-04-10T12:08:06.065Z,19.42
2019-04-10T12:12:33.426Z,20.05
2019-04-10T12:15:03.958Z,22.52
2019-04-10T12:17:36.029Z,24.37
2019-04-10T12:20:08.994Z,20.50
2019-04-10T12:22:38.436Z,20.77
2019-04-10T12:25:27.264Z,19.87
2019-04-10T12:27:57.983Z,22.33
2019-04-10T12:30:27.459Z,17.60
2019-04-10T12:32:58.180Z,17.23
2019-04-10T12:35:27.827Z,17.27
2019-04-10T12:38:02.702Z,17.63
2019-04-10T12:40:28.806Z,19.30
2019-04-10T12:43:03.211Z,17.07
2019-04-10T12:45:32.717Z,21.93
2019-04-10T12:48:02.271Z,20.90
2019-04-10T12:50:32.782Z,21.07
2019-04-10T12:53:03.046Z,21.50
2019-04-10T12:55:32.723Z,21.10
2019-04-10T12:58:09.584Z,22.20
2019-04-10T13:00:34.014Z,24.00
2019-04-10T13:03:05.132Z,22.63
2019-04-10T13:05:35.631Z,24.53
2019-04-10T13:08:14.638Z,22.23
2019-04-10T13:10:39.820Z,23.52
2019-04-10T13:13:09.559Z,24.23
2019-04-10T13:15:39.348Z,23.00
2019-04-10T13:18:10.726Z,22.22
2019-04-10T13:20:40.207Z,23.50
2019-04-10T13:23:10.784Z,19.63
2019-04-10T13:25:40.735Z,22.20
2019-04-10T13:28:11.538Z,22.60
2019-04-10T13:30:48.911Z,21.57
2019-04-10T13:33:14.260Z,22.20
2019-04-10T13:35:44.245Z,23.45
2019-04-10T13:38:23.135Z,22.17
2019-04-10T13:40:45.973Z,22.67
2019-04-10T13:43:15.985Z,19.27
2019-04-10T13:45:45.815Z,23.20
2019-04-10T13:48:16.429Z,21.97
2019-04-10T13:50:46.626Z,21.57
2019-04-10T13:53:16.277Z,20.77
2019-04-10T13:55:45.982Z,21.77
2019-04-10T13:58:15.588Z,22.60
2019-04-10T14:00:45.316Z,23.07
2019-04-10T14:03:16.360Z,22.40
2019-04-10T14:05:47.637Z,21.87
2019-04-10T14:08:17.276Z,22.93
2019-04-10T14:10:47.057Z,22.48
2019-04-10T14:13:17.785Z,21.27
2019-04-10T14:15:48.446Z,22.42
2019-04-10T14:18:19.678Z,22.48
2019-04-10T14:20:49.352Z,20.97
2019-04-10T14:23:20.627Z,23.27
2019-04-10T14:25:51.783Z,21.25
2019-04-10T14:28:40.914Z,20.75
2019-04-10T14:31:14.049Z,21.05
2019-04-10T14:33:45.566Z,19.82
2019-04-10T14:36:15.889Z,23.60
2019-04-10T14:38:45.538Z,21.15
2019-04-10T14:41:15.758Z,19.85
2019-04-10T14:43:46.655Z,21.13
2019-04-10T14:46:16.552Z,21.37
2019-04-10T14:48:47.016Z,18.90
2019-04-10T14:51:17.364Z,21.93
2019-04-10T14:53:46.989Z,22.83
2019-04-10T14:56:17.771Z,20.17
2019-04-10T14:58:47.601Z,21.02
2019-04-10T15:01:17.813Z,24.32
2019-04-10T15:03:48.803Z,25.05
2019-04-10T15:06:20.489Z,18.27
2019-04-10T15:08:50.295Z,21.07
2019-04-10T15:11:39.208Z,21.42
2019-04-10T15:14:09.603Z,20.63
2019-04-10T15:16:39.156Z,20.20
2019-04-10T15:19:08.577Z,20.40
2019-04-10T15:21:38.782Z,20.82
2019-04-10T15:24:08.928Z,22.90
2019-04-10T15:26:40.395Z,22.17
2019-04-10T15:29:16.284Z,20.20
2019-04-10T15:31:46.017Z,19.17
2019-04-10T15:34:16.170Z,20.27
2019-04-10T15:36:47.460Z,20.08
2019-04-10T15:39:17.143Z,21.97
2019-04-10T15:41:47.578Z,19.48
2019-04-10T15:44:18.062Z,19.67
2019-04-10T15:46:48.986Z,18.48
2019-04-10T15:49:19.445Z,20.55
2019-04-10T15:51:49.740Z,19.15
2019-04-10T15:54:19.449Z,19.73
2019-04-10T15:57:08.768Z,19.02
2019-04-10T15:59:38.554Z,24.43
2019-04-10T16:02:09.386Z,20.55
2019-04-10T16:04:51.737Z,20.00
2019-04-10T16:07:22.544Z,20.55
2019-04-10T16:09:56.181Z,20.70
2019-04-10T16:12:25.187Z,19.70
2019-04-10T16:14:54.967Z,19.80
2019-04-10T16:17:29.255Z,19.85
2019-04-10T16:20:01.953Z,22.48
2019-04-10T16:22:33.476Z,19.15
2019-04-10T16:25:05.348Z,21.60
2019-04-10T16:27:35.042Z,21.40
2019-04-10T16:30:08.243Z,20.62
2019-04-10T16:32:37.870Z,20.45
2019-04-10T16:35:09.326Z,21.20
2019-04-10T16:37:39.704Z,21.42
2019-04-10T16:40:10.462Z,21.35
2019-04-10T16:42:41.699Z,20.45
2019-04-10T16:45:13.470Z,20.82
2019-04-10T16:47:44.039Z,22.98
2019-04-10T16:50:14.215Z,19.62
2019-04-10T16:52:43.753Z,21.02
2019-04-10T16:55:13.615Z,21.77
2019-04-10T16:57:43.307Z,20.27
2019-04-10T17:00:15.296Z,21.37
2019-04-10T17:02:44.883Z,21.45
2019-04-10T17:05:14.936Z,22.50
2019-04-10T17:08:03.789Z,23.18
2019-04-10T17:10:34.536Z,22.42
2019-04-10T17:13:04.800Z,23.60
2019-04-10T17:15:34.392Z,22.90
2019-04-10T17:18:04.058Z,21.97
2019-04-10T17:20:33.617Z,21.83
2019-04-10T17:23:03.113Z,23.18
2019-04-10T17:25:33.908Z,25.68
2019-04-10T17:28:04.794Z,25.25
2019-04-10T17:30:34.401Z,26.87
2019-04-10T17:33:04.824Z,23.00
2019-04-10T17:35:34.691Z,22.60
2019-04-10T17:38:06.797Z,22.97
2019-04-10T17:40:45.857Z,23.30
2019-04-10T17:43:08.557Z,24.40
2019-04-10T17:45:38.649Z,25.33
2019-04-10T17:48:09.397Z,24.40
2019-04-10T17:50:39.499Z,21.47
2019-04-10T17:53:09.369Z,20.17
2019-04-10T17:55:39.977Z,19.30
2019-04-10T17:58:09.752Z,19.77
2019-04-10T18:00:40.853Z,16.53
2019-04-10T18:03:11.041Z,18.43
2019-04-10T18:05:40.977Z,20.35
2019-04-10T18:08:10.723Z,25.25
2019-04-10T18:10:47.414Z,22.83
2019-04-10T18:13:11.599Z,22.60
2019-04-10T18:15:44.193Z,22.93
2019-04-10T18:18:14.089Z,20.30
2019-04-10T18:20:44.430Z,19.27
2019-04-10T18:23:14.122Z,17.77
2019-04-10T18:25:44.436Z,19.63
2019-04-10T18:28:14.103Z,19.73
2019-04-10T18:30:44.010Z,19.27
2019-04-10T18:33:14.199Z,21.20
2019-04-10T18:35:43.932Z,17.30
2019-04-10T18:38:13.513Z,17.63
2019-04-10T18:40:53.130Z,17.60
2019-04-10T18:43:34.038Z,18.73
2019-04-10T18:46:12.233Z,16.20
2019-04-10T18:48:35.356Z,16.47
2019-04-10T18:51:07.893Z,17.10
2019-04-10T18:53:37.214Z,15.60
2019-04-10T18:56:07.054Z,16.63
2019-04-10T18:58:38.236Z,16.53
2019-04-10T19:01:12.792Z,16.03
2019-04-10T19:03:51.069Z,17.23
2019-04-10T19:06:18.353Z,15.00
2019-04-10T19:09:01.671Z,15.83
2019-04-10T19:11:24.458Z,13.73
2019-04-10T19:13:50.981Z,14.43
2019-04-10T19:16:27.660Z,15.37
2019-04-10T19:18:57.276Z,14.63
2019-04-10T19:21:27.247Z,17.90
2019-04-10T19:24:16.149Z,14.23
2019-04-10T19:26:45.625Z,16.30
2019-04-10T19:29:15.137Z,13.07
2019-04-10T19:31:46.455Z,15.93
2019-04-10T19:34:16.988Z,15.40
2019-04-10T19:36:46.589Z,16.57
2019-04-10T19:39:16.258Z,16.13
2019-04-10T19:41:46.893Z,13.87
2019-04-10T19:44:17.007Z,14.70
2019-04-10T19:46:46.618Z,20.07
2019-04-10T19:49:16.384Z,14.00
2019-04-10T19:51:46.721Z,16.07
2019-04-10T19:54:17.684Z,15.10
2019-04-10T19:56:55.819Z,14.23
2019-04-10T19:59:25.578Z,17.03
2019-04-10T20:01:55.051Z,18.70
2019-04-10T20:04:24.619Z,14.30
2019-04-10T20:06:54.432Z,17.43
2019-04-10T20:09:24.296Z,14.43
2019-04-10T20:11:56.161Z,13.30
2019-04-10T20:14:25.251Z,14.80
2019-04-10T20:16:55.512Z,14.37
2019-04-10T20:19:25.090Z,16.03
2019-04-10T20:21:54.618Z,14.70
2019-04-10T20:24:25.043Z,16.00
2019-04-10T20:26:55.831Z,16.60
2019-04-10T20:29:26.633Z,15.33
2019-04-10T20:31:57.980Z,17.20
2019-04-10T20:34:27.522Z,15.93
2019-04-10T20:36:58.294Z,12.30
2019-04-10T20:39:29.911Z,16.60
2019-04-10T20:42:00.897Z,15.73
2019-04-10T20:44:30.702Z,15.00
2019-04-10T20:47:00.436Z,14.70
2019-04-10T20:49:30.165Z,13.30
2019-04-10T20:51:59.863Z,15.97
2019-04-10T20:54:29.403Z,13.43
2019-04-10T20:56:59.279Z,14.67
2019-04-10T20:59:28.840Z,15.07
2019-04-10T21:01:58.307Z,14.17
2019-04-10T21:04:27.797Z,13.13
2019-04-10T21:07:00.733Z,14.87
2019-04-10T21:09:30.365Z,15.53
2019-04-10T21:12:08.597Z,13.67
2019-04-10T21:14:34.009Z,19.50
2019-04-10T21:17:04.577Z,13.93
2019-04-10T21:19:35.387Z,14.60
2019-04-10T21:22:05.907Z,16.23
2019-04-10T21:24:35.759Z,16.37
2019-04-10T21:27:05.756Z,12.33
2019-04-10T21:29:36.843Z,15.53
2019-04-10T21:32:09.383Z,16.33
2019-04-10T21:34:40.226Z,15.20
2019-04-10T21:37:10.273Z,15.03
2019-04-10T21:39:39.736Z,17.93
2019-04-10T21:42:21.656Z,17.80
2019-04-10T21:44:46.367Z,13.70
2019-04-10T21:47:15.848Z,14.33
2019-04-10T21:49:46.387Z,14.70
2019-04-10T21:52:16.499Z,17.23
2019-04-10T21:54:51.129Z,14.67
2019-04-10T21:57:18.188Z,14.97
2019-04-10T21:59:47.771Z,13.10
2019-04-10T22:02:17.572Z,14.63
2019-04-10T22:05:08.120Z,13.83
2019-04-10T22:07:40.516Z,16.93
2019-04-10T22:10:32.201Z,15.40
2019-04-10T22:13:01.847Z,13.67
2019-04-10T22:15:33.246Z,12.87
2019-04-10T22:18:03.166Z,14.13
2019-04-10T22:20:33.680Z,13.00
2019-04-10T22:23:04.041Z,13.33
2019-04-10T22:25:33.818Z,15.70
2019-04-10T22:28:04.289Z,14.20
2019-04-10T22:30:35.029Z,13.87
2019-04-10T22:33:05.434Z,13.93
2019-04-10T22:35:36.650Z,15.17
2019-04-10T22:38:06.101Z,14.83
2019-04-10T22:40:35.773Z,14.87
2019-04-10T22:43:05.483Z,15.37
2019-04-10T22:45:36.016Z,15.27
2019-04-10T22:48:06.291Z,14.27
2019-04-10T22:50:36.479Z,14.63
2019-04-10T22:53:06.906Z,15.07
2019-04-10T22:55:36.887Z,14.00
2019-04-10T22:58:06.537Z,17.90
2019-04-10T23:00:36.210Z,13.13
2019-04-10T23:03:05.899Z,15.00
2019-04-10T23:05:36.491Z,12.60
2019-04-10T23:08:27.372Z,16.50
2019-04-10T23:10:57.407Z,16.57
2019-04-10T23:13:27.275Z,13.30
2019-04-10T23:15:58.272Z,13.37
2019-04-10T23:18:27.868Z,14.90
2019-04-10T23:20:58.529Z,12.93
2019-04-10T23:23:28.457Z,14.43
2019-04-10T23:25:58.549Z,14.00
2019-04-10T23:28:28.091Z,13.47
2019-04-10T23:30:57.808Z,12.40
2019-04-10T23:33:28.120Z,15.40
2019-04-10T23:35:58.063Z,12.50
2019-04-10T23:38:27.864Z,12.90
2019-04-10T23:40:57.253Z,12.53
2019-04-10T23:43:27.397Z,13.67
2019-04-10T23:45:57.831Z,12.87
2019-04-10T23:48:27.460Z,11.10
2019-04-10T23:50:56.945Z,11.43
2019-04-10T23:53:26.684Z,12.67
2019-04-10T23:55:56.583Z,16.83
2019-04-10T23:58:26.392Z,15.80
